Time,TemperatureF,DewpointF,PressureIn,WindDirection,WindDirectionDegrees,WindSpeedMPH,WindSpeedGustMPH,Humidity,HourlyPrecipIn,Conditions,Clouds,dailyrainin,SolarRadiationWatts/m^2,SoftwareType,DateUTC
2013-06-18 00:00:00,67.0,26.0,-100.00,NE,35,3.0,6.0,21,-99.99,,,0.00,0.000000,,2013-06-18 07:00:00,
2013-06-18 00:43:00,67.0,26.0,-100.00,NE,35,3.0,6.0,21,-99.99,,,0.00,0.000000,,2013-06-18 07:43:00,
2013-06-18 00:53:00,67.0,26.0,-100.00,NE,35,3.0,6.0,21,-99.99,,,0.00,0.000000,,2013-06-18 07:53:00,
2013-06-18 01:00:00,58.0,30.0,-100.00,South,182,0.0,1.0,34,-99.99,,,0.00,0.000000,,2013-06-18 08:00:00,
2013-06-18 01:43:00,58.0,30.0,-100.00,South,182,0.0,1.0,34,-99.99,,,0.00,0.000000,,2013-06-18 08:43:00,
2013-06-18 01:52:00,58.0,30.0,-100.00,South,182,0.0,1.0,34,-99.99,,,0.00,0.000000,,2013-06-18 08:52:00,
2013-06-18 02:00:00,54.0,32.0,-100.00,SSW,202,1.0,2.0,44,-99.99,,,0.00,0.000000,,2013-06-18 09:00:00,
2013-06-18 02:53:00,54.0,32.0,-100.00,SSW,202,1.0,2.0,44,-99.99,,,0.00,0.000000,,2013-06-18 09:53:00,
2013-06-18 03:00:00,51.0,32.0,-100.00,West,272,0.0,2.0,47,-99.99,,,0.00,0.000000,,2013-06-18 10:00:00,
2013-06-18 03:43:00,51.0,32.0,-100.00,West,272,0.0,2.0,47,-99.99,,,0.00,0.000000,,2013-06-18 10:43:00,
2013-06-18 03:53:00,51.0,32.0,-100.00,West,272,0.0,2.0,47,-99.99,,,0.00,0.000000,,2013-06-18 10:53:00,
2013-06-18 04:00:00,51.0,32.0,-100.00,WSW,245,0.0,2.0,49,-99.99,,,0.00,0.000000,,2013-06-18 11:00:00,
2013-06-18 04:43:00,51.0,32.0,-100.00,WSW,245,0.0,2.0,49,-99.99,,,0.00,0.000000,,2013-06-18 11:43:00,
2013-06-18 04:52:00,51.0,32.0,-100.00,WSW,245,0.0,2.0,49,-99.99,,,0.00,0.000000,,2013-06-18 11:52:00,
2013-06-18 05:00:00,48.0,33.0,-100.00,West,260,0.0,2.0,54,-99.99,,,0.00,0.000000,,2013-06-18 12:00:00,
2013-06-18 05:43:00,48.0,33.0,-100.00,West,260,0.0,2.0,54,-99.99,,,0.00,0.000000,,2013-06-18 12:43:00,
2013-06-18 05:52:00,48.0,33.0,-100.00,West,260,0.0,2.0,54,-99.99,,,0.00,0.000000,,2013-06-18 12:52:00,
2013-06-18 06:00:00,47.0,33.0,-100.00,WSW,255,0.0,1.0,59,-99.99,,,0.00,26.379999,,2013-06-18 13:00:00,
2013-06-18 06:43:00,47.0,33.0,-100.00,WSW,255,0.0,1.0,59,-99.99,,,0.00,26.379999,,2013-06-18 13:43:00,
2013-06-18 06:53:00,47.0,33.0,-100.00,WSW,255,0.0,1.0,59,-99.99,,,0.00,26.379999,,2013-06-18 13:53:00,
2013-06-18 07:00:00,55.0,35.0,-100.00,South,177,3.0,4.0,46,-99.99,,,0.00,221.630005,,2013-06-18 14:00:00,
2013-06-18 07:43:00,55.0,35.0,-100.00,South,177,3.0,4.0,46,-99.99,,,0.00,221.630005,,2013-06-18 14:43:00,
2013-06-18 07:53:00,55.0,35.0,-100.00,South,177,3.0,4.0,46,-99.99,,,0.00,221.630005,,2013-06-18 14:53:00,
2013-06-18 08:00:00,63.0,34.0,-100.00,WSW,240,3.0,5.0,34,-99.99,,,0.00,411.540009,,2013-06-18 15:00:00,
2013-06-18 08:43:00,63.0,34.0,-100.00,WSW,240,3.0,5.0,34,-99.99,,,0.00,411.540009,,2013-06-18 15:43:00,
2013-06-18 08:53:00,63.0,34.0,-100.00,WSW,240,3.0,5.0,34,-99.99,,,0.00,411.540009,,2013-06-18 15:53:00,
2013-06-18 09:00:00,70.0,29.0,-100.00,WSW,248,2.0,4.0,22,-99.99,,,0.00,612.250000,,2013-06-18 16:00:00,
2013-06-18 09:43:00,70.0,29.0,-100.00,WSW,248,2.0,4.0,22,-99.99,,,0.00,612.250000,,2013-06-18 16:43:00,
2013-06-18 09:53:00,70.0,29.0,-100.00,WSW,248,2.0,4.0,22,-99.99,,,0.00,612.250000,,2013-06-18 16:53:00,
2013-06-18 10:00:00,73.0,23.0,-100.00,NNE,27,4.0,9.0,15,-99.99,,,0.00,784.140015,,2013-06-18 17:00:00,
2013-06-18 10:43:00,73.0,23.0,-100.00,NNE,27,4.0,9.0,15,-99.99,,,0.00,784.140015,,2013-06-18 17:43:00,
2013-06-18 10:53:00,73.0,23.0,-100.00,NNE,27,4.0,9.0,15,-99.99,,,0.00,784.140015,,2013-06-18 17:53:00,
2013-06-18 11:00:00,75.0,19.0,-100.00,WSW,258,4.0,8.0,12,-99.99,,,0.00,920.580017,,2013-06-18 18:00:00,
2013-06-18 11:42:00,75.0,19.0,-100.00,WSW,258,4.0,8.0,12,-99.99,,,0.00,920.580017,,2013-06-18 18:42:00,
2013-06-18 11:53:00,75.0,19.0,-100.00,WSW,258,4.0,8.0,12,-99.99,,,0.00,920.580017,,2013-06-18 18:53:00,
2013-06-18 12:00:00,79.0,22.0,-100.00,SSE,150,4.0,12.0,11,-99.99,,,0.00,1002.979980,,2013-06-18 19:00:00,
2013-06-18 12:43:00,79.0,22.0,-100.00,SSE,150,4.0,12.0,11,-99.99,,,0.00,1002.979980,,2013-06-18 19:43:00,
2013-06-18 12:52:00,79.0,22.0,-100.00,SSE,150,4.0,12.0,11,-99.99,,,0.00,1002.979980,,2013-06-18 19:52:00,
2013-06-18 13:00:00,81.0,22.0,-100.00,North,10,5.0,10.0,10,-99.99,,,0.00,1037.839966,,2013-06-18 20:00:00,
2013-06-18 13:43:00,81.0,22.0,-100.00,North,10,5.0,10.0,10,-99.99,,,0.00,1037.839966,,2013-06-18 20:43:00,
2013-06-18 13:52:00,81.0,22.0,-100.00,North,10,5.0,10.0,10,-99.99,,,0.00,1037.839966,,2013-06-18 20:52:00,
2013-06-18 14:00:00,83.0,20.0,-100.00,North,359,6.0,11.0,9,-99.99,,,0.00,986.710022,,2013-06-18 21:00:00,
2013-06-18 14:43:00,83.0,20.0,-100.00,North,359,6.0,11.0,9,-99.99,,,0.00,986.710022,,2013-06-18 21:43:00,
2013-06-18 14:52:00,83.0,20.0,-100.00,North,359,6.0,11.0,9,-99.99,,,0.00,986.710022,,2013-06-18 21:52:00,
2013-06-18 15:00:00,83.0,18.0,-100.00,West,272,9.0,25.0,8,-99.99,,,0.00,699.760010,,2013-06-18 22:00:00,
2013-06-18 15:42:00,83.0,18.0,-100.00,West,272,9.0,25.0,8,-99.99,,,0.00,699.760010,,2013-06-18 22:42:00,
2013-06-18 15:53:00,83.0,18.0,-100.00,West,272,9.0,25.0,8,-99.99,,,0.00,699.760010,,2013-06-18 22:53:00,
2013-06-18 16:00:00,82.0,20.0,-100.00,West,266,15.0,25.0,10,-99.99,,,0.00,657.460022,,2013-06-18 23:00:00,
2013-06-18 16:45:00,82.0,20.0,-100.00,West,266,15.0,25.0,10,-99.99,,,0.00,657.460022,,2013-06-18 23:45:00,
2013-06-18 16:53:00,82.0,20.0,-100.00,West,266,15.0,25.0,10,-99.99,,,0.00,657.460022,,2013-06-18 23:53:00,
2013-06-18 17:00:00,78.0,23.0,-100.00,West,274,13.0,28.0,12,-99.99,,,0.00,208.149994,,2013-06-19 00:00:00,
2013-06-18 17:43:00,78.0,23.0,-100.00,West,274,13.0,28.0,12,-99.99,,,0.00,208.149994,,2013-06-19 00:43:00,
2013-06-18 17:53:00,78.0,23.0,-100.00,West,274,13.0,28.0,12,-99.99,,,0.00,208.149994,,2013-06-19 00:53:00,
2013-06-18 18:00:00,74.0,25.0,-100.00,WNW,286,13.0,27.0,15,-99.99,,,0.00,136.559998,,2013-06-19 01:00:00,
2013-06-18 18:42:00,74.0,25.0,-100.00,WNW,286,13.0,27.0,15,-99.99,,,0.00,136.559998,,2013-06-19 01:42:00,
2013-06-18 18:53:00,74.0,25.0,-100.00,WNW,286,13.0,27.0,15,-99.99,,,0.00,136.559998,,2013-06-19 01:53:00,
2013-06-18 19:00:00,72.0,22.0,-100.00,West,275,22.0,39.0,15,-99.99,,,0.00,94.599998,,2013-06-19 02:00:00,
2013-06-18 19:42:00,72.0,22.0,-100.00,West,275,22.0,39.0,15,-99.99,,,0.00,94.599998,,2013-06-19 02:42:00,
2013-06-18 19:52:00,72.0,22.0,-100.00,West,275,22.0,39.0,15,-99.99,,,0.00,94.599998,,2013-06-19 02:52:00,
2013-06-18 20:00:00,69.0,22.0,-100.00,West,272,20.0,32.0,16,-99.99,,,0.00,99.370003,,2013-06-19 03:00:00,
2013-06-18 20:42:00,69.0,22.0,-100.00,West,272,20.0,32.0,16,-99.99,,,0.00,99.370003,,2013-06-19 03:42:00,
2013-06-18 20:52:00,69.0,22.0,-100.00,West,272,20.0,32.0,16,-99.99,,,0.00,99.370003,,2013-06-19 03:52:00,
2013-06-18 21:00:00,65.0,21.0,-100.00,West,273,18.0,30.0,18,-99.99,,,0.00,0.120000,,2013-06-19 04:00:00,
2013-06-18 21:42:00,65.0,21.0,-100.00,West,273,18.0,30.0,18,-99.99,,,0.00,0.120000,,2013-06-19 04:42:00,
2013-06-18 21:53:00,65.0,21.0,-100.00,West,273,18.0,30.0,18,-99.99,,,0.00,0.120000,,2013-06-19 04:53:00,
2013-06-18 22:00:00,63.0,20.0,-100.00,WNW,300,7.0,12.0,18,-99.99,,,0.00,0.000000,,2013-06-19 05:00:00,
2013-06-18 22:42:00,63.0,20.0,-100.00,WNW,300,7.0,12.0,18,-99.99,,,0.00,0.000000,,2013-06-19 05:42:00,
2013-06-18 22:52:00,63.0,20.0,-100.00,WNW,300,7.0,12.0,18,-99.99,,,0.00,0.000000,,2013-06-19 05:52:00,
2013-06-18 23:00:00,60.0,20.0,-100.00,WNW,286,9.0,15.0,20,-99.99,,,0.00,0.000000,,2013-06-19 06:00:00,
2013-06-18 23:42:00,60.0,20.0,-100.00,WNW,286,9.0,15.0,20,-99.99,,,0.00,0.000000,,2013-06-19 06:42:00,
2013-06-18 23:52:00,60.0,20.0,-100.00,WNW,286,9.0,15.0,20,-99.99,,,0.00,0.000000,,2013-06-19 06:52:00,